Time;durP1;ratioP1;P1;durP2;ratioP2;P2;SDS_P1;SDS_P2;PMS_P1;PMS_P2;Temp;Humidity;BMP_temperature;BMP_pressure;BME280_temperature;BME280_humidity;BME280_pressure;Samples;Min_cycle;Max_cycle;Signal;HPM_P1;HPM_P2
2022/04/18 00:02:13;;;;;;;9.63;5.43;;;12.80;47.60;;;;;;5089461;28;20023;-61
2022/04/18 00:04:38;;;;;;;8.70;5.40;;;12.80;47.70;;;;;;5091241;28;20047;-62
2022/04/18 00:07:04;;;;;;;6.45;4.57;;;12.70;47.70;;;;;;5090906;28;20491;-61
2022/04/18 00:09:33;;;;;;;8.05;5.30;;;12.70;48.60;;;;;;5070610;28;20056;-62
2022/04/18 00:11:59;;;;;;;8.27;4.53;;;12.60;48.20;;;;;;5108335;27;20107;-63
2022/04/18 00:14:24;;;;;;;7.68;5.05;;;12.50;48.00;;;;;;5092544;28;20024;-63
2022/04/18 00:16:51;;;;;;;8.73;5.88;;;12.50;48.50;;;;;;5104786;27;20032;-64
2022/04/18 00:19:16;;;;;;;9.73;4.70;;;12.50;48.80;;;;;;5090128;28;20383;-64
2022/04/18 00:21:42;;;;;;;9.98;6.03;;;12.40;48.80;;;;;;5091785;28;20286;-64
2022/04/18 00:24:11;;;;;;;8.27;5.45;;;12.40;49.10;;;;;;5089252;28;20035;-63
2022/04/18 00:26:39;;;;;;;9.77;5.07;;;12.30;48.90;;;;;;5105624;27;20105;-61
2022/04/18 00:29:05;;;;;;;7.50;5.50;;;12.30;49.30;;;;;;5089252;28;20020;-62
2022/04/18 00:31:31;;;;;;;9.45;5.55;;;12.20;49.60;;;;;;5088062;28;20923;-62
2022/04/18 00:33:57;;;;;;;12.48;5.53;;;12.10;49.70;;;;;;5088537;28;20024;-62
2022/04/18 00:36:22;;;;;;;10.80;5.72;;;12.10;49.60;;;;;;5070202;28;20416;-62
2022/04/18 00:38:48;;;;;;;6.40;5.38;;;12.10;49.90;;;;;;5070735;28;20487;-64
2022/04/18 00:41:14;;;;;;;7.18;5.45;;;12.00;50.00;;;;;;5088975;28;20081;-64
2022/04/18 00:43:45;;;;;;;13.07;6.43;;;12.00;50.10;;;;;;5087513;28;20058;-65
2022/04/18 00:46:13;;;;;;;8.93;6.68;;;12.00;50.10;;;;;;5088372;28;20086;-64
2022/04/18 00:48:39;;;;;;;11.80;6.10;;;11.90;50.20;;;;;;5085588;28;20034;-64
2022/04/18 00:51:09;;;;;;;10.93;5.38;;;11.80;50.50;;;;;;5053502;28;20028;-62
2022/04/18 00:53:37;;;;;;;9.38;5.43;;;11.80;50.50;;;;;;5088953;28;20023;-62
2022/04/18 00:56:03;;;;;;;9.95;5.95;;;11.70;50.60;;;;;;5090070;28;20057;-62
2022/04/18 00:58:29;;;;;;;7.80;5.55;;;11.70;50.90;;;;;;5096994;28;20032;-62
2022/04/18 01:00:55;;;;;;;9.00;5.53;;;11.70;51.10;;;;;;5070783;28;20035;-62
2022/04/18 01:03:21;;;;;;;10.85;5.85;;;11.60;51.20;;;;;;5087373;28;20119;-62
2022/04/18 01:05:47;;;;;;;7.78;5.63;;;11.60;51.30;;;;;;5087359;28;20461;-62
2022/04/18 01:08:14;;;;;;;10.45;5.47;;;11.50;51.90;;;;;;5108207;27;20118;-62
2022/04/18 01:10:40;;;;;;;8.70;5.32;;;11.50;51.40;;;;;;5087552;28;20052;-62
2022/04/18 01:13:06;;;;;;;9.02;4.88;;;11.40;51.30;;;;;;5089404;28;20110;-62
2022/04/18 01:15:32;;;;;;;7.15;6.03;;;11.40;51.40;;;;;;5069544;28;20070;-61
2022/04/18 01:17:58;;;;;;;7.53;4.78;;;11.40;51.60;;;;;;5088689;28;20031;-61
2022/04/18 01:20:30;;;;;;;5.47;4.38;;;11.30;52.00;;;;;;5087044;28;20031;-62
2022/04/18 01:22:57;;;;;;;9.35;4.07;;;11.30;51.90;;;;;;5086703;28;20035;-62
2022/04/18 01:30:55;;;;;;;6.03;4.88;;;11.10;52.30;;;;;;5092249;28;20105;-62
2022/04/18 01:33:22;;;;;;;7.90;4.45;;;11.10;52.20;;;;;;5068802;28;20024;-62
2022/04/18 01:35:47;;;;;;;10.15;5.03;;;11.00;53.00;;;;;;5087877;28;20365;-62
2022/04/18 01:38:13;;;;;;;7.55;4.38;;;11.00;52.50;;;;;;5070868;28;20031;-62
2022/04/18 01:40:39;;;;;;;6.97;4.00;;;10.90;52.60;;;;;;5089012;28;20483;-62
2022/04/18 01:43:06;;;;;;;7.63;4.32;;;10.90;52.80;;;;;;5084376;28;20387;-62
2022/04/18 01:45:32;;;;;;;6.93;4.03;;;10.90;52.80;;;;;;5086642;28;20078;-64
2022/04/18 01:47:57;;;;;;;6.13;4.45;;;10.80;52.90;;;;;;5089244;28;20437;-64
2022/04/18 01:50:23;;;;;;;8.75;5.38;;;10.80;53.40;;;;;;5071070;28;20028;-64
2022/04/18 01:52:49;;;;;;;8.00;4.60;;;10.80;53.60;;;;;;5089625;28;20146;-64
2022/04/18 01:55:14;;;;;;;5.15;4.20;;;10.70;53.40;;;;;;5090230;28;20035;-64
2022/04/18 01:57:40;;;;;;;6.00;4.20;;;10.70;53.60;;;;;;5073426;28;20062;-64
2022/04/18 02:00:06;;;;;;;5.63;4.10;;;10.60;53.90;;;;;;5086452;28;20032;-64
2022/04/18 02:02:32;;;;;;;6.03;4.35;;;10.60;53.50;;;;;;5088600;28;20032;-65
2022/04/18 02:04:59;;;;;;;6.35;4.63;;;10.50;53.60;;;;;;5101501;28;20489;-64
2022/04/18 02:07:24;;;;;;;8.80;4.63;;;10.50;54.00;;;;;;5100291;28;20070;-62
2022/04/18 02:09:50;;;;;;;4.78;3.88;;;10.50;54.10;;;;;;5055342;28;20036;-64
2022/04/18 02:12:16;;;;;;;4.97;4.47;;;10.50;54.10;;;;;;5087007;28;20763;-64
2022/04/18 02:14:42;;;;;;;5.97;4.28;;;10.40;54.20;;;;;;5069431;28;20555;-62
2022/04/18 02:17:08;;;;;;;10.02;4.53;;;10.40;54.40;;;;;;5086649;28;20020;-64
2022/04/18 02:19:34;;;;;;;6.60;4.63;;;10.40;54.20;;;;;;5072527;28;20032;-63
2022/04/18 02:22:00;;;;;;;4.40;3.75;;;10.30;54.40;;;;;;5086542;28;20503;-62
2022/04/18 02:24:26;;;;;;;6.80;4.57;;;10.30;54.60;;;;;;5092742;28;20130;-65
2022/04/18 02:26:52;;;;;;;5.53;3.60;;;10.20;54.80;;;;;;5068456;28;20035;-64
2022/04/18 02:29:18;;;;;;;9.60;4.72;;;10.20;54.80;;;;;;5092301;28;20440;-64
2022/04/18 02:34:28;;;;;;;7.07;4.75;;;10.10;54.80;;;;;;5092862;28;20089;-64
2022/04/18 02:36:53;;;;;;;7.18;5.05;;;10.10;54.70;;;;;;5090609;28;20032;-64
2022/04/18 02:39:19;;;;;;;9.63;4.55;;;10.00;54.70;;;;;;5087872;28;20028;-64
2022/04/18 02:41:45;;;;;;;5.97;3.90;;;10.00;54.70;;;;;;5090439;28;20055;-63
2022/04/18 02:44:10;;;;;;;5.03;4.00;;;10.00;54.70;;;;;;5074751;28;20115;-64
2022/04/18 02:46:36;;;;;;;12.57;4.88;;;9.90;54.80;;;;;;5091129;28;20478;-64
2022/04/18 02:49:02;;;;;;;14.48;4.95;;;9.90;55.00;;;;;;5054781;28;20036;-64
2022/04/18 02:51:27;;;;;;;6.07;4.43;;;9.90;55.20;;;;;;5098055;28;20430;-65
2022/04/18 02:53:54;;;;;;;6.18;4.45;;;9.90;55.50;;;;;;5092061;28;20170;-64
2022/04/18 02:56:22;;;;;;;6.30;4.45;;;9.80;55.50;;;;;;5090141;28;20012;-65
2022/04/18 02:58:48;;;;;;;5.57;3.95;;;9.80;55.60;;;;;;5094906;28;20109;-63
2022/04/18 03:01:14;;;;;;;5.45;4.15;;;9.80;55.50;;;;;;5091895;28;20032;-64
2022/04/18 03:03:40;;;;;;;5.53;4.05;;;9.70;55.40;;;;;;5072497;28;20550;-65
2022/04/18 03:06:05;;;;;;;8.13;4.88;;;9.70;55.30;;;;;;5090374;28;20038;-65
2022/04/18 03:08:32;;;;;;;6.43;4.32;;;9.70;55.40;;;;;;5089318;28;20035;-64
2022/04/18 03:11:04;;;;;;;7.20;5.07;;;9.60;55.40;;;;;;5091379;28;20024;-64
2022/04/18 03:13:32;;;;;;;6.60;4.18;;;9.60;55.50;;;;;;5090260;28;20542;-64
2022/04/18 03:15:58;;;;;;;6.35;3.92;;;9.60;55.60;;;;;;5090208;28;20028;-64
2022/04/18 03:18:28;;;;;;;5.75;4.38;;;9.60;55.60;;;;;;5088829;28;20382;-64
2022/04/18 03:20:54;;;;;;;4.60;3.85;;;9.50;55.00;;;;;;5072729;28;20464;-64
2022/04/18 03:23:20;;;;;;;5.47;3.80;;;9.50;55.30;;;;;;5104364;27;20218;-64
2022/04/18 03:25:45;;;;;;;6.00;4.40;;;9.40;55.70;;;;;;5105711;27;20492;-64
2022/04/18 03:28:11;;;;;;;7.03;3.63;;;9.40;55.80;;;;;;5091180;28;20431;-62
2022/04/18 03:30:37;;;;;;;5.47;3.33;;;9.40;56.30;;;;;;5073062;28;20042;-64
2022/04/18 03:33:03;;;;;;;6.22;3.97;;;9.30;55.50;;;;;;5089118;28;20408;-62
2022/04/18 03:35:30;;;;;;;5.35;4.00;;;9.30;55.50;;;;;;5097813;28;20028;-64
2022/04/18 03:40:41;;;;;;;6.78;4.18;;;9.20;56.00;;;;;;5098156;28;20470;-62
2022/04/18 03:43:06;;;;;;;5.78;4.13;;;9.20;56.20;;;;;;5088024;28;20099;-62
2022/04/18 03:45:32;;;;;;;6.72;4.78;;;9.10;56.20;;;;;;5089164;28;20042;-62
2022/04/18 03:47:58;;;;;;;6.53;4.53;;;9.10;56.10;;;;;;5085506;28;20042;-62
2022/04/18 03:50:24;;;;;;;4.13;3.55;;;9.10;56.10;;;;;;5054814;28;20036;-62
2022/04/18 03:52:49;;;;;;;6.68;3.72;;;9.00;56.10;;;;;;5089164;28;20386;-62
2022/04/18 03:55:15;;;;;;;5.68;3.85;;;9.00;56.60;;;;;;5073609;28;20032;-62
2022/04/18 03:57:41;;;;;;;5.22;3.88;;;9.00;56.70;;;;;;5089169;28;20489;-62
2022/04/18 04:00:08;;;;;;;7.10;4.53;;;8.90;56.50;;;;;;5097738;28;20851;-62
2022/04/18 04:02:34;;;;;;;6.88;4.70;;;8.90;56.60;;;;;;5107502;28;20054;-62
2022/04/18 04:04:59;;;;;;;5.90;3.97;;;8.90;56.70;;;;;;5095454;28;20374;-63
2022/04/18 04:07:25;;;;;;;5.35;4.25;;;8.80;56.60;;;;;;5091452;28;20546;-62
2022/04/18 04:09:53;;;;;;;6.80;4.45;;;8.80;56.70;;;;;;5093647;28;20067;-62
2022/04/18 04:12:23;;;;;;;7.28;4.57;;;8.80;57.00;;;;;;5088656;28;20047;-62
2022/04/18 04:14:52;;;;;;;10.35;4.38;;;8.80;57.10;;;;;;5077168;28;20101;-62
2022/04/18 04:17:18;;;;;;;4.55;3.70;;;8.70;57.30;;;;;;5089684;28;20024;-62
2022/04/18 04:19:44;;;;;;;5.63;3.50;;;8.70;57.50;;;;;;5097207;28;20044;-64
2022/04/18 04:22:10;;;;;;;5.47;3.05;;;8.70;57.50;;;;;;5089436;28;20038;-64
2022/04/18 04:24:36;;;;;;;5.95;3.58;;;8.60;57.40;;;;;;5089351;28;20032;-64
2022/04/18 04:27:02;;;;;;;5.75;4.32;;;8.60;57.50;;;;;;5088562;28;20035;-61
2022/04/18 04:29:28;;;;;;;4.95;3.92;;;8.60;57.90;;;;;;5093875;28;20032;-64
2022/04/18 04:31:53;;;;;;;5.60;4.00;;;8.60;57.70;;;;;;5082127;28;20043;-63
2022/04/18 04:34:22;;;;;;;6.63;3.67;;;8.50;57.70;;;;;;5091526;28;20028;-63
2022/04/18 04:36:48;;;;;;;6.63;4.03;;;8.50;57.80;;;;;;5086245;28;20028;-62
2022/04/18 04:39:13;;;;;;;7.72;3.88;;;8.50;58.10;;;;;;5074085;28;20050;-63
2022/04/18 04:41:39;;;;;;;4.50;4.00;;;8.50;58.20;;;;;;5088414;28;20044;-61
2022/04/18 04:44:08;;;;;;;4.68;3.97;;;8.40;58.20;;;;;;5088705;28;20036;-62
2022/04/18 04:46:35;;;;;;;4.78;3.30;;;8.40;58.40;;;;;;5086563;28;20043;-61
2022/04/18 04:49:00;;;;;;;4.50;3.42;;;8.40;58.60;;;;;;5086860;28;20028;-63
2022/04/18 04:51:26;;;;;;;4.20;3.70;;;8.40;58.60;;;;;;5102142;28;20478;-63
2022/04/18 04:53:52;;;;;;;6.15;3.58;;;8.40;58.70;;;;;;5089558;28;20093;-64
2022/04/18 04:56:17;;;;;;;7.07;4.10;;;8.40;58.80;;;;;;5094999;28;20028;-62
2022/04/18 04:58:43;;;;;;;7.25;3.92;;;8.30;58.70;;;;;;5092126;28;20109;-62
2022/04/18 05:01:10;;;;;;;7.00;3.58;;;8.30;58.80;;;;;;5091487;28;20032;-64
2022/04/18 05:03:36;;;;;;;3.85;3.20;;;8.30;58.80;;;;;;5087892;28;20427;-64
2022/04/18 05:06:01;;;;;;;5.30;3.63;;;8.30;59.00;;;;;;5093961;28;20031;-63
2022/04/18 05:08:27;;;;;;;4.60;4.20;;;8.30;59.10;;;;;;5100430;28;20036;-62
2022/04/18 05:10:59;;;;;;;4.20;3.22;;;8.30;59.20;;;;;;5091645;28;20542;-65
2022/04/18 05:13:25;;;;;;;5.95;3.80;;;8.30;59.30;;;;;;5092971;28;20122;-65
2022/04/18 05:15:51;;;;;;;6.15;4.35;;;8.30;59.40;;;;;;5069345;28;20119;-65
2022/04/18 05:18:16;;;;;;;5.80;3.40;;;8.30;59.30;;;;;;5087795;28;20028;-64
2022/04/18 05:20:42;;;;;;;4.30;3.90;;;8.30;59.50;;;;;;5070445;28;20445;-65
2022/04/18 05:23:08;;;;;;;4.45;3.40;;;8.30;59.60;;;;;;5087645;28;20059;-65
2022/04/18 05:25:33;;;;;;;4.47;3.75;;;8.40;59.70;;;;;;5086919;28;20036;-63
2022/04/18 05:27:59;;;;;;;3.33;2.25;;;8.40;60.00;;;;;;5102097;28;20039;-62
2022/04/18 05:30:25;;;;;;;7.10;3.70;;;8.40;60.30;;;;;;5094265;28;20038;-63
2022/04/18 05:32:50;;;;;;;5.10;3.60;;;8.40;60.40;;;;;;5077150;28;20024;-63
2022/04/18 05:35:16;;;;;;;7.65;3.92;;;8.50;60.40;;;;;;5090768;28;20032;-63
2022/04/18 05:37:42;;;;;;;5.22;3.80;;;8.50;60.50;;;;;;5086726;28;20088;-63
2022/04/18 05:40:08;;;;;;;6.25;2.90;;;8.50;60.30;;;;;;5088224;28;20579;-63
2022/04/18 05:42:35;;;;;;;4.20;3.50;;;8.60;60.30;;;;;;5052558;28;20393;-63
2022/04/18 05:45:00;;;;;;;4.25;3.10;;;8.60;60.40;;;;;;5087137;28;20057;-65
2022/04/18 05:47:26;;;;;;;3.88;3.38;;;8.70;60.50;;;;;;5069603;28;20437;-63
2022/04/18 05:49:52;;;;;;;6.32;3.33;;;8.70;60.50;;;;;;5089024;28;20039;-62
2022/04/18 05:52:18;;;;;;;3.58;2.78;;;8.80;60.50;;;;;;5071931;28;20130;-66
2022/04/18 05:54:43;;;;;;;4.68;3.28;;;8.80;60.30;;;;;;5068075;28;20082;-64
2022/04/18 05:57:09;;;;;;;5.03;3.05;;;8.90;60.10;;;;;;5084366;28;20051;-64
2022/04/18 05:59:35;;;;;;;5.35;2.97;;;8.90;59.90;;;;;;5090587;28;20031;-65
2022/04/18 06:02:01;;;;;;;3.53;3.00;;;9.00;59.70;;;;;;5086695;28;20036;-62
2022/04/18 06:04:27;;;;;;;2.30;2.10;;;9.10;59.40;;;;;;5068037;28;20028;-62
2022/04/18 06:06:52;;;;;;;4.30;2.55;;;9.20;59.20;;;;;;5084015;28;20044;-63
2022/04/18 06:09:18;;;;;;;3.47;2.60;;;9.20;58.90;;;;;;5087747;28;21093;-62
2022/04/18 06:11:44;;;;;;;6.03;3.40;;;9.30;58.70;;;;;;5087951;28;20031;-62
2022/04/18 06:14:10;;;;;;;5.85;2.65;;;9.40;58.40;;;;;;5087370;28;20028;-62
2022/04/18 06:16:35;;;;;;;3.40;2.70;;;9.40;58.10;;;;;;5084977;28;20035;-63
2022/04/18 06:19:01;;;;;;;2.50;2.00;;;9.50;57.80;;;;;;5086163;28;20398;-62
2022/04/18 06:21:27;;;;;;;9.75;2.67;;;9.60;57.60;;;;;;5085743;28;20024;-63
2022/04/18 06:23:52;;;;;;;2.63;2.40;;;9.60;57.40;;;;;;5084942;28;20024;-63
2022/04/18 06:26:18;;;;;;;4.38;2.42;;;9.70;57.30;;;;;;5087386;28;20815;-62
2022/04/18 06:28:44;;;;;;;9.52;3.72;;;9.70;57.30;;;;;;5064371;28;20019;-61
2022/04/18 06:31:10;;;;;;;3.15;2.85;;;9.80;56.30;;;;;;5084427;28;20568;-61
2022/04/18 06:33:35;;;;;;;5.25;2.92;;;9.80;56.20;;;;;;5067248;28;20059;-62
2022/04/18 06:36:02;;;;;;;3.67;3.13;;;9.80;55.50;;;;;;5084668;28;20028;-65
2022/04/18 06:38:28;;;;;;;5.03;3.40;;;9.90;55.50;;;;;;5086929;28;20087;-62
2022/04/18 06:40:57;;;;;;;2.67;2.35;;;9.90;55.50;;;;;;5087951;28;20043;-61
2022/04/18 06:43:36;;;;;;;3.63;2.53;;;10.00;55.50;;;;;;5088903;28;20641;-61
2022/04/18 06:46:02;;;;;;;3.03;2.05;;;10.10;55.30;;;;;;5083588;28;20131;-61
2022/04/18 06:48:28;;;;;;;3.22;2.22;;;10.20;55.40;;;;;;5088944;28;20095;-62
2022/04/18 06:50:54;;;;;;;3.35;2.50;;;10.20;55.00;;;;;;5070228;28;20047;-62
2022/04/18 06:53:20;;;;;;;3.45;2.47;;;10.30;54.70;;;;;;5068709;28;20070;-60
2022/04/18 06:58:30;;;;;;;5.18;2.80;;;10.40;53.80;;;;;;5092554;28;20129;-60
2022/04/18 07:00:56;;;;;;;7.65;3.20;;;10.40;53.80;;;;;;5086832;28;20060;-62
2022/04/18 07:03:22;;;;;;;3.85;2.08;;;10.40;53.80;;;;;;5070861;28;20082;-62
2022/04/18 07:05:48;;;;;;;6.88;2.67;;;10.40;53.60;;;;;;5086699;28;20052;-64
2022/04/18 07:08:14;;;;;;;5.25;2.20;;;10.50;53.60;;;;;;5063076;28;20132;-62
2022/04/18 07:10:39;;;;;;;2.55;2.30;;;10.50;53.40;;;;;;5087087;28;20079;-62
2022/04/18 07:13:05;;;;;;;2.83;2.33;;;10.60;53.50;;;;;;5088791;28;20031;-61
2022/04/18 07:15:32;;;;;;;2.83;2.55;;;10.70;53.40;;;;;;5090020;28;20085;-62
2022/04/18 07:17:58;;;;;;;3.78;2.65;;;10.70;53.60;;;;;;5074325;28;20030;-61
2022/04/18 07:20:24;;;;;;;3.33;2.35;;;10.80;53.60;;;;;;5087026;28;20431;-61
2022/04/18 07:22:50;;;;;;;5.05;3.45;;;10.90;53.50;;;;;;5081804;28;20032;-64
2022/04/18 07:25:15;;;;;;;5.47;2.72;;;10.90;53.20;;;;;;5089009;28;20040;-64
2022/04/18 07:27:41;;;;;;;2.47;2.08;;;11.00;53.20;;;;;;5088808;28;20035;-64
2022/04/18 07:30:08;;;;;;;4.22;2.85;;;11.00;53.20;;;;;;5088491;28;20422;-64
2022/04/18 07:32:41;;;;;;;2.88;2.58;;;11.10;53.30;;;;;;5085287;28;20036;-65
2022/04/18 07:35:08;;;;;;;5.03;2.78;;;11.10;53.20;;;;;;5085710;28;20024;-64
2022/04/18 07:37:35;;;;;;;5.72;2.75;;;11.10;53.40;;;;;;5090360;28;20036;-64
2022/04/18 07:40:01;;;;;;;3.95;2.85;;;11.20;53.40;;;;;;5101459;28;20172;-65
2022/04/18 07:42:26;;;;;;;3.20;2.30;;;11.20;53.30;;;;;;5091276;28;20539;-65
2022/04/18 07:44:52;;;;;;;3.40;2.97;;;11.30;53.40;;;;;;5074829;28;20494;-65
2022/04/18 07:47:18;;;;;;;2.60;2.35;;;11.30;52.70;;;;;;5096793;28;20032;-64
2022/04/18 07:49:43;;;;;;;5.18;2.22;;;11.40;52.80;;;;;;5074674;28;20032;-64
2022/04/18 07:52:11;;;;;;;4.03;2.20;;;11.50;52.90;;;;;;5090632;28;20036;-61
2022/04/18 07:54:37;;;;;;;3.80;2.47;;;11.60;52.80;;;;;;5094249;28;20424;-62
2022/04/18 07:57:04;;;;;;;2.83;1.75;;;11.60;52.60;;;;;;5071519;28;20042;-62
2022/04/18 07:59:30;;;;;;;2.53;2.13;;;11.70;52.80;;;;;;5089350;28;20030;-62
2022/04/18 08:01:56;;;;;;;3.30;2.55;;;11.80;52.80;;;;;;5086664;28;20483;-62
2022/04/18 08:04:22;;;;;;;2.97;2.08;;;11.90;52.80;;;;;;5082278;28;20032;-62
2022/04/18 08:06:49;;;;;;;2.58;2.13;;;11.90;52.80;;;;;;5083063;28;20028;-62
2022/04/18 08:09:14;;;;;;;2.08;1.88;;;12.00;52.80;;;;;;5076612;28;20052;-62
2022/04/18 08:11:41;;;;;;;2.00;1.80;;;12.10;52.80;;;;;;5088017;28;20533;-64
2022/04/18 08:14:06;;;;;;;2.92;1.95;;;12.20;52.50;;;;;;5084349;28;20099;-64
2022/04/18 08:16:32;;;;;;;2.40;1.98;;;12.30;52.50;;;;;;5088033;28;20210;-65
2022/04/18 08:18:58;;;;;;;1.58;1.30;;;12.40;52.50;;;;;;5086111;28;20032;-65
2022/04/18 08:21:24;;;;;;;2.15;1.42;;;12.50;52.20;;;;;;5093031;28;20517;-65
2022/04/18 08:23:51;;;;;;;5.28;1.75;;;12.60;52.00;;;;;;5089112;28;20039;-65
2022/04/18 08:26:17;;;;;;;1.42;1.27;;;12.70;51.80;;;;;;5087274;28;20028;-61
2022/04/18 08:28:43;;;;;;;3.80;1.70;;;12.80;51.50;;;;;;5088153;28;20546;-62
2022/04/18 08:31:09;;;;;;;3.13;1.60;;;12.90;51.00;;;;;;5081543;28;20114;-62
2022/04/18 08:33:35;;;;;;;5.43;1.75;;;13.00;50.60;;;;;;5091740;28;20028;-62
2022/04/18 08:36:01;;;;;;;2.70;1.50;;;13.10;49.80;;;;;;5087912;28;20858;-62
2022/04/18 08:38:27;;;;;;;1.48;1.00;;;13.20;49.90;;;;;;5086961;28;20339;-62
2022/04/18 08:40:56;;;;;;;1.00;0.90;;;13.30;49.90;;;;;;5087912;28;20032;-65
2022/04/18 08:43:22;;;;;;;1.10;1.00;;;13.40;50.00;;;;;;5087925;28;20382;-66
2022/04/18 08:45:48;;;;;;;2.42;1.02;;;13.50;48.80;;;;;;5087859;28;20024;-62
2022/04/18 08:53:43;;;;;;;1.10;1.02;;;13.80;48.60;;;;;;5071924;28;20042;-64
2022/04/18 08:56:08;;;;;;;1.60;1.25;;;13.80;48.40;;;;;;5088273;28;20024;-64
2022/04/18 08:58:35;;;;;;;1.63;1.20;;;13.90;48.60;;;;;;5087168;28;20024;-61
2022/04/18 09:01:02;;;;;;;1.40;1.30;;;14.00;48.20;;;;;;5087909;28;20125;-61
2022/04/18 09:03:28;;;;;;;2.00;1.00;;;14.10;47.50;;;;;;5086615;28;20028;-61
2022/04/18 09:06:05;;;;;;;2.35;1.23;;;14.20;47.70;;;;;;5087508;28;20119;-61
2022/04/18 09:08:34;;;;;;;1.55;1.20;;;14.30;47.70;;;;;;5090296;28;20482;-61
2022/04/18 09:10:59;;;;;;;2.08;1.20;;;14.40;47.30;;;;;;5086858;28;20414;-61
2022/04/18 09:13:25;;;;;;;2.22;1.33;;;14.50;47.50;;;;;;5088137;28;20189;-61
2022/04/18 09:15:51;;;;;;;1.42;0.90;;;14.60;47.50;;;;;;5069273;28;20020;-65
2022/04/18 09:18:19;;;;;;;0.82;0.80;;;14.70;47.50;;;;;;5086796;28;20392;-61
2022/04/18 09:20:50;;;;;;;1.23;0.98;;;14.80;47.40;;;;;;5088321;28;20124;-65
2022/04/18 09:23:23;;;;;;;1.55;0.90;;;15.00;47.10;;;;;;5069922;28;20032;-61
2022/04/18 09:26:16;;;;;;;1.88;1.35;;;15.10;46.70;;;;;;5069364;28;20043;-61
2022/04/18 09:28:41;;;;;;;1.23;0.90;;;15.20;45.90;;;;;;5094171;28;20040;-65
2022/04/18 09:31:09;;;;;;;1.33;1.10;;;15.20;45.70;;;;;;5075965;28;20054;-65
2022/04/18 09:33:38;;;;;;;1.77;1.05;;;15.20;44.50;;;;;;5087877;28;20024;-61
2022/04/18 09:36:09;;;;;;;4.00;1.52;;;15.40;44.70;;;;;;5091993;28;20035;-61
2022/04/18 09:38:37;;;;;;;2.25;1.33;;;15.40;44.30;;;;;;5106560;28;20051;-65
2022/04/18 09:41:03;;;;;;;1.80;1.20;;;15.60;43.20;;;;;;5087460;28;20036;-60
2022/04/18 09:43:49;;;;;;;1.20;0.90;;;15.70;43.60;;;;;;5081856;28;20050;-61
2022/04/18 09:46:16;;;;;;;0.88;0.82;;;15.80;43.10;;;;;;5087423;28;20081;-61
2022/04/18 09:48:44;;;;;;;1.70;1.10;;;15.90;42.50;;;;;;5095518;27;20109;-61
2022/04/18 09:51:13;;;;;;;1.45;1.25;;;16.00;41.40;;;;;;5083936;28;20029;-61
2022/04/18 09:53:41;;;;;;;1.50;1.05;;;16.10;40.20;;;;;;5083860;28;20242;-61
2022/04/18 09:56:07;;;;;;;1.20;0.80;;;16.10;41.00;;;;;;5090536;28;20073;-61
2022/04/18 09:58:34;;;;;;;1.10;0.93;;;16.20;41.20;;;;;;5092182;28;20063;-61
2022/04/18 10:01:04;;;;;;;1.60;1.15;;;16.40;41.40;;;;;;5087182;28;20085;-62
2022/04/18 10:03:31;;;;;;;1.60;1.13;;;16.50;41.00;;;;;;5088551;28;20044;-66
2022/04/18 10:06:00;;;;;;;1.75;1.23;;;16.50;40.90;;;;;;5089833;28;20032;-66
2022/04/18 10:08:27;;;;;;;2.20;0.80;;;16.60;40.80;;;;;;5087695;28;20443;-66
2022/04/18 10:10:54;;;;;;;1.33;1.05;;;16.80;40.60;;;;;;5083967;28;20139;-66
2022/04/18 10:13:21;;;;;;;0.80;0.80;;;16.90;40.80;;;;;;5088801;28;20388;-65
2022/04/18 10:15:49;;;;;;;1.15;0.85;;;17.00;41.00;;;;;;5090128;28;20047;-65
2022/04/18 10:18:16;;;;;;;1.20;0.95;;;17.20;40.50;;;;;;5088244;28;20467;-65
2022/04/18 10:21:06;;;;;;;2.85;1.38;;;17.30;40.30;;;;;;5091824;28;20032;-65
2022/04/18 10:24:17;;;;;;;1.70;1.10;;;17.30;40.40;;;;;;5086807;28;20475;-65
2022/04/18 10:27:04;;;;;;;1.10;1.00;;;17.50;40.10;;;;;;5079939;28;20032;-65
2022/04/18 10:29:39;;;;;;;1.20;1.10;;;17.50;38.10;;;;;;5087125;28;20587;-61
2022/04/18 10:32:07;;;;;;;0.82;0.82;;;17.50;38.70;;;;;;5075983;28;20020;-61
2022/04/18 10:34:35;;;;;;;1.30;1.02;;;17.60;39.30;;;;;;5089098;28;20040;-65
2022/04/18 10:37:03;;;;;;;1.13;1.00;;;17.70;37.80;;;;;;5049819;28;20375;-65
2022/04/18 10:39:37;;;;;;;1.10;1.00;;;17.70;37.80;;;;;;5082015;28;20119;-66
2022/04/18 10:42:33;;;;;;;0.70;0.70;;;17.80;38.30;;;;;;5092048;28;20048;-65
2022/04/18 10:45:09;;;;;;;1.20;1.10;;;18.00;37.80;;;;;;5060558;28;20112;-64
2022/04/18 10:48:00;;;;;;;2.80;1.55;;;18.10;37.20;;;;;;5084223;28;20133;-65
2022/04/18 10:50:28;;;;;;;2.80;1.13;;;18.10;36.40;;;;;;5083607;28;20146;-64
2022/04/18 10:53:39;;;;;;;0.75;0.68;;;18.20;37.50;;;;;;5093373;28;20028;-64
2022/04/18 10:56:10;;;;;;;1.05;0.85;;;18.40;37.00;;;;;;5082646;28;20491;-64
2022/04/18 10:58:37;;;;;;;0.85;0.80;;;18.50;36.40;;;;;;5097489;28;20032;-64
2022/04/18 11:01:06;;;;;;;1.05;0.60;;;18.60;36.10;;;;;;5093981;28;20023;-65
2022/04/18 11:03:35;;;;;;;1.17;0.65;;;18.70;36.00;;;;;;5086541;28;20020;-64
2022/04/18 11:06:02;;;;;;;1.10;0.80;;;18.90;36.40;;;;;;5088228;28;20028;-62
2022/04/18 11:08:29;;;;;;;1.67;1.30;;;19.00;35.30;;;;;;5091421;28;20379;-65
2022/04/18 11:11:16;;;;;;;1.38;0.93;;;19.20;35.20;;;;;;5093179;28;20181;-65
2022/04/18 11:13:48;;;;;;;1.48;1.00;;;19.30;35.40;;;;;;5088689;28;20367;-65
2022/04/18 11:16:22;;;;;;;1.23;0.70;;;19.40;35.40;;;;;;5087578;28;20190;-65
2022/04/18 11:19:28;;;;;;;4.22;1.08;;;19.50;35.40;;;;;;5077578;28;20119;-65
2022/04/18 11:24:39;;;;;;;1.23;1.10;;;19.70;35.20;;;;;;5016317;28;20509;-65
2022/04/18 11:27:12;;;;;;;1.77;1.05;;;19.70;34.70;;;;;;5058007;28;20032;-65
2022/04/18 11:29:39;;;;;;;0.90;0.82;;;19.80;34.20;;;;;;5071837;28;20497;-61
2022/04/18 11:32:07;;;;;;;0.70;0.70;;;19.90;33.20;;;;;;5088040;28;20436;-61
2022/04/18 11:34:34;;;;;;;1.15;0.90;;;20.00;33.20;;;;;;5082694;28;20124;-61
2022/04/18 11:37:03;;;;;;;0.80;0.80;;;20.00;33.10;;;;;;5075738;28;20089;-61
2022/04/18 11:39:46;;;;;;;0.80;0.80;;;20.10;31.60;;;;;;5080095;28;20024;-61
2022/04/18 11:42:39;;;;;;;1.23;0.70;;;20.10;31.10;;;;;;5086584;28;20090;-64
2022/04/18 11:45:07;;;;;;;1.83;0.85;;;20.20;31.30;;;;;;5083406;28;20050;-60
2022/04/18 11:47:44;;;;;;;0.75;0.75;;;20.20;31.10;;;;;;5092776;28;20161;-60
2022/04/18 11:50:10;;;;;;;1.80;0.95;;;20.40;31.90;;;;;;5081166;28;20082;-61
2022/04/18 11:52:39;;;;;;;1.40;0.50;;;20.50;31.80;;;;;;5103526;28;20028;-60
2022/04/18 11:55:06;;;;;;;1.15;1.00;;;20.70;32.00;;;;;;5090965;28;20421;-64
2022/04/18 11:57:34;;;;;;;0.95;0.88;;;20.80;31.40;;;;;;5088267;28;20020;-64
2022/04/18 12:00:03;;;;;;;1.50;1.13;;;20.90;32.00;;;;;;5070883;28;20080;-64
2022/04/18 12:08:05;;;;;;;1.30;1.08;;;21.20;30.60;;;;;;5080749;28;20086;-64
2022/04/18 12:10:33;;;;;;;1.02;0.70;;;21.20;31.20;;;;;;5086447;28;20090;-63
2022/04/18 12:13:05;;;;;;;1.73;1.20;;;21.30;31.40;;;;;;5090596;28;20761;-64
2022/04/18 12:15:30;;;;;;;0.70;0.52;;;21.30;31.20;;;;;;5086650;28;20024;-64
2022/04/18 12:17:57;;;;;;;0.60;0.60;;;21.40;31.50;;;;;;5089581;28;20024;-65
2022/04/18 12:20:30;;;;;;;1.40;0.82;;;21.40;31.60;;;;;;5088368;28;20032;-64
2022/04/18 12:22:58;;;;;;;1.15;1.05;;;21.60;31.40;;;;;;5086774;28;20067;-65
2022/04/18 12:25:31;;;;;;;1.58;1.35;;;21.70;30.80;;;;;;5089416;28;20035;-61
2022/04/18 12:28:04;;;;;;;1.25;0.80;;;21.80;30.40;;;;;;5086731;28;20039;-61
2022/04/18 12:30:30;;;;;;;1.67;1.20;;;21.80;30.50;;;;;;5085715;28;20700;-60
2022/04/18 12:33:20;;;;;;;1.50;1.40;;;21.70;30.20;;;;;;5087186;28;20107;-60
2022/04/18 12:35:48;;;;;;;1.45;1.10;;;21.70;29.90;;;;;;5087383;28;20089;-65
2022/04/18 12:38:16;;;;;;;1.80;1.20;;;21.70;30.20;;;;;;5086791;28;20020;-66
2022/04/18 12:40:52;;;;;;;1.67;1.10;;;21.80;30.00;;;;;;5069301;28;20071;-64
2022/04/18 12:43:18;;;;;;;0.80;0.70;;;21.90;30.00;;;;;;5090225;28;20027;-65
2022/04/18 12:45:47;;;;;;;2.17;1.50;;;22.10;30.10;;;;;;5087446;28;20036;-65
2022/04/18 12:48:13;;;;;;;1.15;1.05;;;22.30;30.20;;;;;;5087254;28;20453;-65
2022/04/18 12:50:44;;;;;;;1.10;1.00;;;22.50;29.70;;;;;;5093494;28;20044;-65
2022/04/18 12:53:10;;;;;;;0.75;0.75;;;22.50;29.20;;;;;;5086179;28;20047;-65
2022/04/18 12:55:35;;;;;;;1.77;1.20;;;22.50;29.80;;;;;;5088600;28;20422;-61
2022/04/18 12:58:01;;;;;;;2.03;0.70;;;22.50;29.40;;;;;;5067941;28;20032;-61
2022/04/18 13:00:35;;;;;;;1.23;1.13;;;22.60;29.70;;;;;;5101991;27;20120;-60
2022/04/18 13:03:07;;;;;;;2.03;1.30;;;22.80;29.30;;;;;;5068456;28;20028;-61
2022/04/18 13:05:40;;;;;;;0.77;0.75;;;23.00;29.20;;;;;;5086309;28;20038;-62
2022/04/18 13:08:07;;;;;;;0.98;0.90;;;23.10;29.50;;;;;;5086435;28;20130;-65
2022/04/18 13:10:35;;;;;;;1.65;1.10;;;23.20;29.60;;;;;;5064225;28;20127;-61
2022/04/18 13:13:11;;;;;;;2.28;1.35;;;23.20;29.20;;;;;;5084993;28;20035;-66
2022/04/18 13:15:39;;;;;;;1.20;1.10;;;23.30;28.80;;;;;;5085832;28;20416;-66
2022/04/18 13:18:08;;;;;;;1.55;1.42;;;23.30;29.10;;;;;;5086066;28;20115;-65
2022/04/18 13:20:35;;;;;;;1.63;1.17;;;23.30;28.60;;;;;;5087921;28;20020;-65
2022/04/18 13:23:01;;;;;;;1.83;1.20;;;23.10;28.20;;;;;;5090075;28;20097;-66